KMIA/MIA METAR and TAF weather

Enter ICAO airport designator
Station Type Date Time Source
KMIA METAR 2020/09/23 19:53 UTC NOAA

KMIA 231953Z 08013G19KT 10SM SCT041 OVC250 30/21 A2994 RMK AO2 SLP138 T03000206


Station Type Date Time Source
KMIA Decoded METAR 2020/09/23 19:53 UTC NOAA

MIAMI INTERNATIONAL AIRPORT , FL, United States (KMIA) 25-47N 080-19W 8M
Sep 23, 2020 - 03:53 PM EDT / 2020.09.23 1953 UTC
Wind: from the E (080 degrees) at 15 MPH (13 KT) gusting to 22 MPH (19 KT):0
Visibility: 10 mile(s):0
Sky conditions: overcast
Temperature: 86.0 F (30.0 C)
Dew Point: 69.1 F (20.6 C)
Relative Humidity: 57%
Pressure (altimeter): 29.94 in. Hg (1013 hPa)
ob: KMIA 231953Z 08013G19KT 10SM SCT041 OVC250 30/21 A2994 RMK AO2 SLP138 T03000206
cycle: 20

Station Type Date Time Source
KMIA TAF 2020/09/23 18:24 UTC NOAA

TAF KMIA 231723Z 2318/2424 09010G20KT P6SM SCT040 SCT060
FM240200 10013KT P6SM SCT030 BKN250
FM241600 12012G22KT P6SM VCSH SCT030 BKN050

Example: see airport list